createdAt,value
2019-04-03T00:01:13.779Z,8.75
2019-04-03T00:06:18.085Z,8.68
2019-04-03T00:11:22.348Z,8.35
2019-04-03T00:16:26.534Z,8.35
2019-04-03T00:21:30.707Z,8.60
2019-04-03T00:26:34.898Z,8.58
2019-04-03T00:31:39.284Z,8.55
2019-04-03T00:36:43.522Z,8.70
2019-04-03T00:41:47.889Z,8.48
2019-04-03T00:46:52.184Z,8.63
2019-04-03T00:51:57.661Z,8.35
2019-04-03T00:57:02.308Z,8.80
2019-04-03T01:02:06.526Z,8.68
2019-04-03T01:07:10.702Z,9.28
2019-04-03T01:12:14.873Z,10.10
2019-04-03T01:17:19.092Z,10.58
2019-04-03T01:22:23.254Z,11.50
2019-04-03T01:27:27.413Z,10.80
2019-04-03T01:32:31.589Z,10.82
2019-04-03T01:37:35.775Z,10.95
2019-04-03T01:42:39.974Z,12.25
2019-04-03T01:47:44.340Z,11.80
2019-04-03T01:52:48.561Z,15.03
2019-04-03T01:57:52.784Z,15.20
2019-04-03T02:02:57.112Z,14.65
2019-04-03T02:08:01.311Z,15.05
2019-04-03T02:13:05.500Z,13.98
2019-04-03T02:18:09.773Z,16.12
2019-04-03T02:23:13.977Z,16.12
2019-04-03T02:28:18.216Z,14.38
2019-04-03T02:33:22.392Z,14.65
2019-04-03T02:38:26.584Z,15.60
2019-04-03T02:43:30.879Z,14.07
2019-04-03T02:48:38.292Z,14.07
2019-04-03T02:53:41.253Z,13.65
2019-04-03T02:58:45.448Z,14.23
2019-04-03T03:03:50.240Z,14.93
2019-04-03T03:08:54.867Z,15.13
2019-04-03T03:14:00.269Z,13.78
2019-04-03T03:19:04.774Z,12.50
2019-04-03T03:24:09.542Z,11.65
2019-04-03T03:29:17.898Z,12.18
2019-04-03T03:34:43.690Z,10.93
2019-04-03T03:39:26.102Z,11.83
2019-04-03T03:44:31.131Z,11.38
2019-04-03T03:49:36.892Z,10.98
2019-04-03T03:54:41.151Z,11.73
2019-04-03T03:59:49.480Z,13.03
2019-04-03T04:04:51.761Z,12.43
2019-04-03T04:09:56.243Z,12.30
2019-04-03T04:15:00.759Z,11.90
2019-04-03T04:20:06.291Z,12.73
2019-04-03T04:25:10.610Z,12.25
2019-04-03T04:30:18.884Z,11.85
2019-04-03T04:35:23.091Z,15.68
2019-04-03T04:40:28.771Z,10.72
2019-04-03T04:45:33.873Z,13.15
2019-04-03T04:50:38.370Z,12.13
2019-04-03T04:55:42.571Z,12.33
2019-04-03T05:00:47.795Z,12.82
2019-04-03T05:05:52.245Z,13.38
2019-04-03T05:10:56.525Z,13.98
2019-04-03T05:16:00.816Z,13.78
2019-04-03T05:21:05.272Z,15.18
2019-04-03T05:26:09.510Z,16.60
2019-04-03T05:31:13.708Z,16.67
2019-04-03T05:36:18.373Z,16.45
2019-04-03T05:41:23.004Z,15.72
2019-04-03T05:46:27.374Z,16.27
2019-04-03T05:51:31.574Z,15.13
2019-04-03T05:56:35.963Z,14.98
2019-04-03T06:01:41.957Z,14.85
2019-04-03T06:06:47.234Z,16.40
2019-04-03T06:11:52.736Z,11.80
2019-04-03T06:16:57.322Z,13.32
2019-04-03T06:22:01.705Z,16.67
2019-04-03T06:27:06.005Z,12.33
2019-04-03T06:32:11.699Z,12.53
2019-04-03T06:37:15.882Z,11.08
2019-04-03T06:42:20.076Z,10.85
2019-04-03T06:47:24.305Z,13.35
2019-04-03T06:52:28.650Z,11.30
2019-04-03T06:57:33.031Z,10.80
2019-04-03T07:02:37.383Z,10.70
2019-04-03T07:07:41.654Z,12.60
2019-04-03T07:12:46.451Z,11.75
2019-04-03T07:17:51.759Z,10.63
2019-04-03T07:22:56.972Z,10.32
2019-04-03T07:28:02.061Z,11.43
2019-04-03T07:33:06.390Z,10.20
2019-04-03T07:38:10.670Z,9.45
2019-04-03T07:43:14.860Z,8.63
2019-04-03T07:48:19.139Z,9.65
2019-04-03T07:53:23.402Z,12.20
2019-04-03T07:58:30.669Z,9.30
2019-04-03T08:03:33.638Z,12.95
2019-04-03T08:08:38.176Z,11.18
2019-04-03T08:13:43.353Z,9.33
2019-04-03T08:18:47.544Z,9.75
2019-04-03T08:23:51.806Z,11.28
2019-04-03T08:33:27.752Z,12.75
2019-04-03T08:38:32.526Z,10.43
2019-04-03T08:43:36.851Z,11.83
2019-04-03T08:48:41.153Z,11.20
2019-04-03T08:53:45.404Z,9.50
2019-04-03T08:58:49.603Z,15.98
2019-04-03T09:03:53.825Z,11.70
2019-04-03T09:08:58.706Z,11.10
2019-04-03T09:18:30.572Z,9.55
2019-04-03T09:23:35.205Z,8.85
2019-04-03T09:28:41.137Z,8.08
2019-04-03T09:33:45.303Z,8.55
2019-04-03T09:38:49.497Z,8.28
2019-04-03T09:43:54.613Z,9.40
2019-04-03T09:48:59.184Z,20.20
2019-04-03T09:54:03.803Z,11.05
2019-04-03T09:59:08.242Z,10.88
2019-04-03T10:04:12.616Z,11.18
2019-04-03T10:09:16.920Z,11.03
2019-04-03T10:14:21.139Z,10.95
2019-04-03T10:19:25.545Z,10.00
2019-04-03T10:24:30.989Z,10.15
2019-04-03T10:29:35.738Z,8.53
2019-04-03T10:34:39.448Z,7.55
2019-04-03T10:39:44.861Z,8.10
2019-04-03T10:44:49.399Z,8.35
2019-04-03T10:49:53.753Z,9.13
2019-04-03T10:54:58.008Z,7.92
2019-04-03T11:00:02.438Z,9.55
2019-04-03T11:05:07.698Z,8.28
2019-04-03T11:10:13.558Z,9.13
2019-04-03T11:15:18.183Z,10.45
2019-04-03T11:20:22.604Z,8.58
2019-04-03T11:25:26.785Z,12.93
2019-04-03T11:30:31.103Z,8.25
2019-04-03T11:35:35.325Z,9.60
2019-04-03T11:40:39.585Z,9.43
2019-04-03T11:45:44.074Z,9.75
2019-04-03T11:50:48.401Z,7.75
2019-04-03T11:55:52.620Z,7.75
2019-04-03T12:00:56.892Z,8.68
2019-04-03T12:06:01.106Z,10.72
2019-04-03T12:11:06.967Z,7.25
2019-04-03T12:16:12.152Z,9.43
2019-04-03T12:21:18.382Z,8.90
2019-04-03T12:26:22.488Z,9.98
2019-04-03T12:31:26.713Z,8.98
2019-04-03T12:36:31.289Z,7.65
2019-04-03T12:41:36.430Z,7.12
2019-04-03T12:46:41.845Z,7.30
2019-04-03T12:51:46.161Z,7.17
2019-04-03T12:56:50.396Z,11.22
2019-04-03T13:01:55.023Z,8.13
2019-04-03T13:06:59.354Z,8.48
2019-04-03T13:12:04.240Z,8.00
2019-04-03T13:17:08.539Z,6.60
2019-04-03T13:22:12.784Z,6.60
2019-04-03T13:27:17.099Z,6.47
2019-04-03T13:32:23.077Z,6.87
2019-04-03T13:37:27.499Z,5.85
2019-04-03T13:42:32.261Z,6.42
2019-04-03T13:47:39.727Z,7.25
2019-04-03T13:52:47.606Z,7.35
2019-04-03T13:57:49.837Z,7.00
2019-04-03T14:02:57.063Z,6.70
2019-04-03T14:08:00.497Z,6.90
2019-04-03T14:13:04.851Z,6.90
2019-04-03T14:18:09.424Z,6.62
2019-04-03T14:23:13.800Z,5.72
2019-04-03T14:28:18.454Z,3.50
2019-04-03T14:33:23.453Z,3.30
2019-04-03T14:38:29.222Z,3.80
2019-04-03T14:43:34.525Z,3.47
2019-04-03T14:48:39.504Z,6.75
2019-04-03T14:53:43.684Z,3.95
2019-04-03T14:58:48.389Z,4.67
2019-04-03T15:03:52.751Z,7.97
2019-04-03T15:08:56.445Z,9.20
2019-04-03T20:30:01.530Z,13.48
2019-04-03T20:35:05.531Z,14.98
2019-04-03T20:40:09.795Z,13.22
2019-04-03T20:45:14.428Z,12.93
2019-04-03T20:50:18.717Z,12.47
2019-04-03T20:55:24.807Z,13.60
2019-04-03T21:00:28.933Z,14.83
2019-04-03T21:05:33.148Z,16.23
2019-04-03T21:10:37.370Z,19.82
2019-04-03T21:15:41.576Z,26.07
2019-04-03T21:20:45.786Z,26.10
2019-04-03T21:25:50.015Z,22.42
2019-04-03T21:30:54.903Z,17.67
2019-04-03T21:35:59.741Z,13.68
2019-04-03T21:41:04.131Z,17.75
2019-04-03T21:46:08.962Z,12.28
2019-04-03T21:51:13.818Z,7.75
2019-04-03T21:56:18.043Z,7.57
2019-04-03T22:01:24.777Z,6.10
2019-04-03T22:06:29.024Z,5.87
2019-04-03T22:11:35.589Z,5.42
2019-04-03T22:16:39.400Z,5.37
2019-04-03T22:21:43.650Z,6.90
2019-04-03T22:26:47.891Z,8.50
2019-04-03T22:31:54.413Z,8.20
2019-04-03T22:36:58.292Z,9.93
2019-04-03T22:42:02.706Z,10.45
2019-04-03T22:47:06.951Z,11.70
2019-04-03T22:52:11.342Z,11.97
2019-04-03T22:57:15.712Z,11.20
2019-04-03T23:02:20.052Z,10.63
2019-04-03T23:07:24.372Z,9.60
2019-04-03T23:12:28.751Z,10.55
2019-04-03T23:17:33.525Z,8.43
2019-04-03T23:22:37.886Z,10.07
2019-04-03T23:27:42.271Z,10.98
2019-04-03T23:32:46.651Z,10.80
2019-04-03T23:37:51.043Z,10.40
2019-04-03T23:42:55.405Z,11.48
2019-04-03T23:48:00.230Z,10.40
2019-04-03T23:53:04.698Z,11.87
2019-04-03T23:58:10.789Z,11.57
